sensor_id;sensor_type;location;lat;lon;timestamp;P1;durP1;ratioP1;P2;durP2;ratioP2
63567;SDS011;49715;42.386;20.434;2022-07-24T00:02:08;21.45;;;10.02;;
63567;SDS011;49715;42.386;20.434;2022-07-24T00:04:35;29.40;;;10.05;;
63567;SDS011;49715;42.386;20.434;2022-07-24T00:07:01;23.60;;;10.30;;
63567;SDS011;49715;42.386;20.434;2022-07-24T00:09:28;21.15;;;9.90;;
63567;SDS011;49715;42.386;20.434;2022-07-24T00:11:54;20.85;;;9.65;;
63567;SDS011;49715;42.386;20.434;2022-07-24T00:14:21;19.25;;;9.10;;
63567;SDS011;49715;42.386;20.434;2022-07-24T00:16:47;21.67;;;9.45;;
63567;SDS011;49715;42.386;20.434;2022-07-24T00:19:13;17.13;;;9.13;;
63567;SDS011;49715;42.386;20.434;2022-07-24T00:21:40;15.50;;;8.80;;
63567;SDS011;49715;42.386;20.434;2022-07-24T00:24:06;15.73;;;8.48;;
63567;SDS011;49715;42.386;20.434;2022-07-24T00:26:34;24.02;;;9.25;;
63567;SDS011;49715;42.386;20.434;2022-07-24T00:29:01;15.77;;;9.90;;
63567;SDS011;49715;42.386;20.434;2022-07-24T00:31:28;18.98;;;9.55;;
63567;SDS011;49715;42.386;20.434;2022-07-24T00:33:55;17.63;;;9.40;;
63567;SDS011;49715;42.386;20.434;2022-07-24T00:36:21;15.57;;;8.70;;
63567;SDS011;49715;42.386;20.434;2022-07-24T00:38:47;15.90;;;8.15;;
63567;SDS011;49715;42.386;20.434;2022-07-24T00:41:15;17.88;;;8.35;;
63567;SDS011;49715;42.386;20.434;2022-07-24T00:46:46;21.02;;;8.30;;
63567;SDS011;49715;42.386;20.434;2022-07-24T00:49:14;15.48;;;7.82;;
63567;SDS011;49715;42.386;20.434;2022-07-24T00:51:43;13.07;;;7.88;;
63567;SDS011;49715;42.386;20.434;2022-07-24T00:54:11;18.15;;;7.82;;
63567;SDS011;49715;42.386;20.434;2022-07-24T00:56:40;13.98;;;8.10;;
63567;SDS011;49715;42.386;20.434;2022-07-24T00:59:08;12.02;;;7.57;;
63567;SDS011;49715;42.386;20.434;2022-07-24T01:01:34;13.75;;;8.07;;
63567;SDS011;49715;42.386;20.434;2022-07-24T01:04:01;13.57;;;8.10;;
63567;SDS011;49715;42.386;20.434;2022-07-24T01:06:28;15.50;;;7.95;;
63567;SDS011;49715;42.386;20.434;2022-07-24T01:08:54;17.35;;;8.55;;
63567;SDS011;49715;42.386;20.434;2022-07-24T01:11:21;24.52;;;8.93;;
63567;SDS011;49715;42.386;20.434;2022-07-24T01:13:49;19.70;;;8.63;;
63567;SDS011;49715;42.386;20.434;2022-07-24T01:16:16;20.08;;;8.60;;
63567;SDS011;49715;42.386;20.434;2022-07-24T01:18:43;19.10;;;8.48;;
63567;SDS011;49715;42.386;20.434;2022-07-24T01:23:36;18.25;;;8.23;;
63567;SDS011;49715;42.386;20.434;2022-07-24T01:26:07;19.45;;;8.63;;
63567;SDS011;49715;42.386;20.434;2022-07-24T01:28:34;15.77;;;7.50;;
63567;SDS011;49715;42.386;20.434;2022-07-24T01:31:01;15.35;;;8.02;;
63567;SDS011;49715;42.386;20.434;2022-07-24T01:33:28;14.35;;;8.38;;
63567;SDS011;49715;42.386;20.434;2022-07-24T01:35:55;18.38;;;8.65;;
63567;SDS011;49715;42.386;20.434;2022-07-24T01:38:22;19.27;;;8.95;;
63567;SDS011;49715;42.386;20.434;2022-07-24T01:40:48;17.80;;;8.38;;
63567;SDS011;49715;42.386;20.434;2022-07-24T01:43:15;16.02;;;9.18;;
63567;SDS011;49715;42.386;20.434;2022-07-24T01:45:42;19.38;;;8.65;;
63567;SDS011;49715;42.386;20.434;2022-07-24T01:48:08;15.82;;;9.10;;
63567;SDS011;49715;42.386;20.434;2022-07-24T01:50:35;19.27;;;8.48;;
63567;SDS011;49715;42.386;20.434;2022-07-24T01:53:01;15.35;;;8.88;;
63567;SDS011;49715;42.386;20.434;2022-07-24T01:55:28;17.25;;;7.82;;
63567;SDS011;49715;42.386;20.434;2022-07-24T01:57:56;15.98;;;8.60;;
63567;SDS011;49715;42.386;20.434;2022-07-24T02:00:22;14.35;;;9.05;;
63567;SDS011;49715;42.386;20.434;2022-07-24T02:05:15;16.13;;;8.80;;
63567;SDS011;49715;42.386;20.434;2022-07-24T02:07:42;17.55;;;8.93;;
63567;SDS011;49715;42.386;20.434;2022-07-24T02:10:10;17.65;;;8.90;;
63567;SDS011;49715;42.386;20.434;2022-07-24T02:12:37;17.08;;;8.30;;
63567;SDS011;49715;42.386;20.434;2022-07-24T02:17:30;17.75;;;9.25;;
63567;SDS011;49715;42.386;20.434;2022-07-24T02:19:57;18.13;;;9.60;;
63567;SDS011;49715;42.386;20.434;2022-07-24T02:22:23;18.70;;;9.18;;
63567;SDS011;49715;42.386;20.434;2022-07-24T02:24:49;18.42;;;9.45;;
63567;SDS011;49715;42.386;20.434;2022-07-24T02:27:16;11.68;;;7.75;;
63567;SDS011;49715;42.386;20.434;2022-07-24T02:29:42;15.55;;;9.00;;
63567;SDS011;49715;42.386;20.434;2022-07-24T02:32:09;16.50;;;8.93;;
63567;SDS011;49715;42.386;20.434;2022-07-24T02:34:35;13.88;;;8.88;;
63567;SDS011;49715;42.386;20.434;2022-07-24T02:37:01;13.75;;;8.55;;
63567;SDS011;49715;42.386;20.434;2022-07-24T02:39:28;15.10;;;9.25;;
63567;SDS011;49715;42.386;20.434;2022-07-24T02:41:54;14.63;;;7.65;;
63567;SDS011;49715;42.386;20.434;2022-07-24T02:44:21;13.57;;;9.20;;
63567;SDS011;49715;42.386;20.434;2022-07-24T02:46:47;21.05;;;7.68;;
63567;SDS011;49715;42.386;20.434;2022-07-24T02:49:14;10.68;;;8.00;;
63567;SDS011;49715;42.386;20.434;2022-07-24T02:51:40;13.07;;;8.25;;
63567;SDS011;49715;42.386;20.434;2022-07-24T02:54:07;16.25;;;8.38;;
63567;SDS011;49715;42.386;20.434;2022-07-24T02:56:35;23.00;;;9.13;;
63567;SDS011;49715;42.386;20.434;2022-07-24T02:59:01;20.65;;;12.18;;
63567;SDS011;49715;42.386;20.434;2022-07-24T03:01:27;17.48;;;11.40;;
63567;SDS011;49715;42.386;20.434;2022-07-24T03:03:54;20.92;;;11.68;;
63567;SDS011;49715;42.386;20.434;2022-07-24T03:06:20;15.88;;;10.35;;
63567;SDS011;49715;42.386;20.434;2022-07-24T03:08:46;20.30;;;10.88;;
63567;SDS011;49715;42.386;20.434;2022-07-24T03:11:13;17.13;;;11.25;;
63567;SDS011;49715;42.386;20.434;2022-07-24T03:13:39;20.98;;;11.63;;
63567;SDS011;49715;42.386;20.434;2022-07-24T03:16:06;16.70;;;11.05;;
63567;SDS011;49715;42.386;20.434;2022-07-24T03:18:33;23.90;;;11.25;;
63567;SDS011;49715;42.386;20.434;2022-07-24T03:20:59;24.25;;;11.20;;
63567;SDS011;49715;42.386;20.434;2022-07-24T03:23:25;15.77;;;11.38;;
63567;SDS011;49715;42.386;20.434;2022-07-24T03:25:52;16.08;;;10.73;;
63567;SDS011;49715;42.386;20.434;2022-07-24T03:28:20;24.55;;;11.10;;
63567;SDS011;49715;42.386;20.434;2022-07-24T03:30:48;27.95;;;12.60;;
63567;SDS011;49715;42.386;20.434;2022-07-24T03:33:14;17.65;;;10.80;;
63567;SDS011;49715;42.386;20.434;2022-07-24T03:35:40;23.98;;;11.75;;
63567;SDS011;49715;42.386;20.434;2022-07-24T03:38:07;19.13;;;11.52;;
63567;SDS011;49715;42.386;20.434;2022-07-24T03:40:33;23.17;;;11.35;;
63567;SDS011;49715;42.386;20.434;2022-07-24T03:43:00;18.73;;;11.63;;
63567;SDS011;49715;42.386;20.434;2022-07-24T03:45:28;20.13;;;11.43;;
63567;SDS011;49715;42.386;20.434;2022-07-24T03:47:54;14.90;;;11.18;;
63567;SDS011;49715;42.386;20.434;2022-07-24T03:50:20;17.60;;;10.10;;
63567;SDS011;49715;42.386;20.434;2022-07-24T03:52:47;18.52;;;11.80;;
63567;SDS011;49715;42.386;20.434;2022-07-24T03:55:13;17.23;;;12.00;;
63567;SDS011;49715;42.386;20.434;2022-07-24T03:57:40;17.38;;;11.38;;
63567;SDS011;49715;42.386;20.434;2022-07-24T04:00:09;27.40;;;13.27;;
63567;SDS011;49715;42.386;20.434;2022-07-24T04:02:52;29.23;;;12.55;;
63567;SDS011;49715;42.386;20.434;2022-07-24T04:05:19;20.48;;;10.98;;
63567;SDS011;49715;42.386;20.434;2022-07-24T04:07:45;22.63;;;11.80;;
63567;SDS011;49715;42.386;20.434;2022-07-24T04:10:31;21.00;;;10.82;;
63567;SDS011;49715;42.386;20.434;2022-07-24T04:12:58;28.27;;;13.25;;
63567;SDS011;49715;42.386;20.434;2022-07-24T04:15:25;18.73;;;11.60;;
63567;SDS011;49715;42.386;20.434;2022-07-24T04:17:52;21.73;;;10.65;;
63567;SDS011;49715;42.386;20.434;2022-07-24T04:20:18;21.83;;;11.75;;
63567;SDS011;49715;42.386;20.434;2022-07-24T04:22:45;25.80;;;12.32;;
63567;SDS011;49715;42.386;20.434;2022-07-24T04:25:13;23.30;;;14.48;;
63567;SDS011;49715;42.386;20.434;2022-07-24T04:27:40;21.27;;;15.43;;
63567;SDS011;49715;42.386;20.434;2022-07-24T04:30:07;24.08;;;15.55;;
63567;SDS011;49715;42.386;20.434;2022-07-24T04:32:33;25.02;;;15.45;;
63567;SDS011;49715;42.386;20.434;2022-07-24T04:35:00;30.17;;;15.05;;
63567;SDS011;49715;42.386;20.434;2022-07-24T04:37:27;30.30;;;15.90;;
63567;SDS011;49715;42.386;20.434;2022-07-24T04:39:53;42.10;;;15.43;;
63567;SDS011;49715;42.386;20.434;2022-07-24T04:42:20;31.98;;;14.90;;
63567;SDS011;49715;42.386;20.434;2022-07-24T04:44:46;23.67;;;15.02;;
63567;SDS011;49715;42.386;20.434;2022-07-24T04:47:13;31.38;;;16.00;;
63567;SDS011;49715;42.386;20.434;2022-07-24T04:49:40;26.40;;;17.13;;
63567;SDS011;49715;42.386;20.434;2022-07-24T04:52:07;30.83;;;15.45;;
63567;SDS011;49715;42.386;20.434;2022-07-24T04:54:34;26.23;;;16.45;;
63567;SDS011;49715;42.386;20.434;2022-07-24T04:57:00;22.88;;;17.27;;
63567;SDS011;49715;42.386;20.434;2022-07-24T04:59:27;32.08;;;19.38;;
63567;SDS011;49715;42.386;20.434;2022-07-24T05:01:54;35.90;;;23.73;;
63567;SDS011;49715;42.386;20.434;2022-07-24T05:04:20;36.47;;;24.95;;
63567;SDS011;49715;42.386;20.434;2022-07-24T05:06:47;58.30;;;41.72;;
63567;SDS011;49715;42.386;20.434;2022-07-24T05:09:13;58.95;;;44.67;;
63567;SDS011;49715;42.386;20.434;2022-07-24T05:11:40;45.70;;;32.78;;
63567;SDS011;49715;42.386;20.434;2022-07-24T05:14:06;21.98;;;16.13;;
63567;SDS011;49715;42.386;20.434;2022-07-24T05:16:33;29.48;;;15.93;;
63567;SDS011;49715;42.386;20.434;2022-07-24T05:18:59;27.38;;;15.48;;
63567;SDS011;49715;42.386;20.434;2022-07-24T05:21:26;39.38;;;17.55;;
63567;SDS011;49715;42.386;20.434;2022-07-24T05:23:52;32.83;;;19.20;;
63567;SDS011;49715;42.386;20.434;2022-07-24T05:26:20;31.58;;;19.35;;
63567;SDS011;49715;42.386;20.434;2022-07-24T05:28:47;28.35;;;16.58;;
63567;SDS011;49715;42.386;20.434;2022-07-24T05:31:14;27.98;;;16.60;;
63567;SDS011;49715;42.386;20.434;2022-07-24T05:33:40;24.77;;;15.70;;
63567;SDS011;49715;42.386;20.434;2022-07-24T05:36:07;21.75;;;13.45;;
63567;SDS011;49715;42.386;20.434;2022-07-24T05:38:33;30.90;;;14.65;;
63567;SDS011;49715;42.386;20.434;2022-07-24T05:41:01;25.92;;;13.98;;
63567;SDS011;49715;42.386;20.434;2022-07-24T05:43:27;23.67;;;14.25;;
63567;SDS011;49715;42.386;20.434;2022-07-24T05:45:54;21.90;;;12.90;;
63567;SDS011;49715;42.386;20.434;2022-07-24T05:48:20;28.75;;;13.30;;
63567;SDS011;49715;42.386;20.434;2022-07-24T05:50:47;22.48;;;13.88;;
63567;SDS011;49715;42.386;20.434;2022-07-24T05:53:13;28.75;;;13.52;;
63567;SDS011;49715;42.386;20.434;2022-07-24T05:55:39;24.60;;;14.15;;
63567;SDS011;49715;42.386;20.434;2022-07-24T05:58:06;21.17;;;13.75;;
63567;SDS011;49715;42.386;20.434;2022-07-24T06:00:32;29.20;;;14.07;;
63567;SDS011;49715;42.386;20.434;2022-07-24T06:03:00;26.05;;;13.93;;
63567;SDS011;49715;42.386;20.434;2022-07-24T06:05:27;22.50;;;16.38;;
63567;SDS011;49715;42.386;20.434;2022-07-24T06:07:53;30.80;;;18.90;;
63567;SDS011;49715;42.386;20.434;2022-07-24T06:10:20;31.45;;;20.17;;
63567;SDS011;49715;42.386;20.434;2022-07-24T06:12:47;29.70;;;19.80;;
63567;SDS011;49715;42.386;20.434;2022-07-24T06:15:14;23.67;;;15.45;;
63567;SDS011;49715;42.386;20.434;2022-07-24T06:17:40;26.30;;;15.40;;
63567;SDS011;49715;42.386;20.434;2022-07-24T06:22:34;27.83;;;13.48;;
63567;SDS011;49715;42.386;20.434;2022-07-24T06:25:01;20.80;;;12.20;;
63567;SDS011;49715;42.386;20.434;2022-07-24T06:27:27;22.20;;;12.15;;
63567;SDS011;49715;42.386;20.434;2022-07-24T06:29:54;16.23;;;10.55;;
63567;SDS011;49715;42.386;20.434;2022-07-24T06:32:20;19.90;;;10.60;;
63567;SDS011;49715;42.386;20.434;2022-07-24T06:34:47;19.73;;;10.68;;
63567;SDS011;49715;42.386;20.434;2022-07-24T06:37:13;16.63;;;10.55;;
63567;SDS011;49715;42.386;20.434;2022-07-24T06:44:35;20.17;;;9.48;;
63567;SDS011;49715;42.386;20.434;2022-07-24T06:47:04;18.20;;;9.20;;
63567;SDS011;49715;42.386;20.434;2022-07-24T06:49:31;15.63;;;7.90;;
63567;SDS011;49715;42.386;20.434;2022-07-24T06:51:57;15.18;;;8.32;;
63567;SDS011;49715;42.386;20.434;2022-07-24T06:54:24;16.15;;;8.70;;
63567;SDS011;49715;42.386;20.434;2022-07-24T06:56:50;22.42;;;9.82;;
63567;SDS011;49715;42.386;20.434;2022-07-24T06:59:16;18.35;;;9.95;;
63567;SDS011;49715;42.386;20.434;2022-07-24T07:01:43;16.13;;;8.90;;
63567;SDS011;49715;42.386;20.434;2022-07-24T07:04:09;19.55;;;9.35;;
63567;SDS011;49715;42.386;20.434;2022-07-24T07:06:36;17.75;;;9.75;;
63567;SDS011;49715;42.386;20.434;2022-07-24T07:09:03;20.25;;;9.20;;
63567;SDS011;49715;42.386;20.434;2022-07-24T07:11:29;23.40;;;10.13;;
63567;SDS011;49715;42.386;20.434;2022-07-24T07:13:56;16.60;;;9.23;;
63567;SDS011;49715;42.386;20.434;2022-07-24T07:16:22;16.00;;;10.73;;
63567;SDS011;49715;42.386;20.434;2022-07-24T07:18:48;16.08;;;10.32;;
63567;SDS011;49715;42.386;20.434;2022-07-24T07:21:16;22.52;;;10.13;;
63567;SDS011;49715;42.386;20.434;2022-07-24T07:23:43;16.75;;;8.95;;
63567;SDS011;49715;42.386;20.434;2022-07-24T07:26:10;18.13;;;9.23;;
63567;SDS011;49715;42.386;20.434;2022-07-24T07:31:04;17.45;;;9.48;;
63567;SDS011;49715;42.386;20.434;2022-07-24T07:35:58;17.15;;;9.13;;
63567;SDS011;49715;42.386;20.434;2022-07-24T07:38:25;18.17;;;8.65;;
63567;SDS011;49715;42.386;20.434;2022-07-24T07:45:44;21.10;;;9.95;;
63567;SDS011;49715;42.386;20.434;2022-07-24T07:48:11;18.60;;;9.23;;
63567;SDS011;49715;42.386;20.434;2022-07-24T07:50:38;21.70;;;10.25;;
63567;SDS011;49715;42.386;20.434;2022-07-24T07:53:04;16.65;;;9.25;;
63567;SDS011;49715;42.386;20.434;2022-07-24T07:55:32;14.02;;;8.27;;
63567;SDS011;49715;42.386;20.434;2022-07-24T07:57:58;13.90;;;8.10;;
63567;SDS011;49715;42.386;20.434;2022-07-24T08:00:25;20.83;;;7.65;;
63567;SDS011;49715;42.386;20.434;2022-07-24T08:02:51;18.15;;;8.88;;
63567;SDS011;49715;42.386;20.434;2022-07-24T08:05:19;19.38;;;8.18;;
63567;SDS011;49715;42.386;20.434;2022-07-24T08:07:45;13.27;;;7.60;;
63567;SDS011;49715;42.386;20.434;2022-07-24T08:10:12;16.38;;;7.95;;
63567;SDS011;49715;42.386;20.434;2022-07-24T08:15:06;17.42;;;8.20;;
63567;SDS011;49715;42.386;20.434;2022-07-24T08:17:39;12.90;;;7.95;;
63567;SDS011;49715;42.386;20.434;2022-07-24T08:22:32;18.67;;;7.07;;
63567;SDS011;49715;42.386;20.434;2022-07-24T08:27:25;11.80;;;6.40;;
63567;SDS011;49715;42.386;20.434;2022-07-24T08:29:51;12.57;;;6.53;;
63567;SDS011;49715;42.386;20.434;2022-07-24T08:32:18;12.85;;;6.20;;
63567;SDS011;49715;42.386;20.434;2022-07-24T08:34:46;12.75;;;6.65;;
63567;SDS011;49715;42.386;20.434;2022-07-24T08:39:39;12.60;;;6.78;;
63567;SDS011;49715;42.386;20.434;2022-07-24T08:42:09;13.77;;;7.20;;
63567;SDS011;49715;42.386;20.434;2022-07-24T08:44:35;10.43;;;6.88;;
63567;SDS011;49715;42.386;20.434;2022-07-24T08:47:04;14.25;;;7.00;;
63567;SDS011;49715;42.386;20.434;2022-07-24T08:49:35;13.57;;;7.20;;
63567;SDS011;49715;42.386;20.434;2022-07-24T08:52:03;11.23;;;7.05;;
63567;SDS011;49715;42.386;20.434;2022-07-24T08:54:34;14.80;;;7.03;;
63567;SDS011;49715;42.386;20.434;2022-07-24T08:57:02;10.57;;;6.40;;
63567;SDS011;49715;42.386;20.434;2022-07-24T08:59:30;12.55;;;6.40;;
63567;SDS011;49715;42.386;20.434;2022-07-24T09:01:58;8.32;;;5.75;;
63567;SDS011;49715;42.386;20.434;2022-07-24T09:04:47;9.57;;;5.63;;
63567;SDS011;49715;42.386;20.434;2022-07-24T09:07:18;9.95;;;6.05;;
63567;SDS011;49715;42.386;20.434;2022-07-24T09:10:02;12.30;;;6.20;;
63567;SDS011;49715;42.386;20.434;2022-07-24T09:12:44;12.75;;;5.55;;
63567;SDS011;49715;42.386;20.434;2022-07-24T09:17:51;12.57;;;6.27;;
63567;SDS011;49715;42.386;20.434;2022-07-24T09:20:24;10.95;;;5.40;;
63567;SDS011;49715;42.386;20.434;2022-07-24T09:22:55;15.07;;;6.32;;
63567;SDS011;49715;42.386;20.434;2022-07-24T09:25:23;11.60;;;5.80;;
63567;SDS011;49715;42.386;20.434;2022-07-24T09:27:58;11.07;;;5.63;;
63567;SDS011;49715;42.386;20.434;2022-07-24T09:30:29;9.50;;;6.00;;
63567;SDS011;49715;42.386;20.434;2022-07-24T09:33:07;8.68;;;5.07;;
63567;SDS011;49715;42.386;20.434;2022-07-24T09:35:43;10.00;;;5.88;;
63567;SDS011;49715;42.386;20.434;2022-07-24T09:38:15;8.70;;;5.43;;
63567;SDS011;49715;42.386;20.434;2022-07-24T09:40:50;10.13;;;5.45;;
63567;SDS011;49715;42.386;20.434;2022-07-24T09:43:22;7.72;;;5.10;;
63567;SDS011;49715;42.386;20.434;2022-07-24T09:46:06;11.52;;;5.82;;
63567;SDS011;49715;42.386;20.434;2022-07-24T09:48:35;8.55;;;5.85;;
63567;SDS011;49715;42.386;20.434;2022-07-24T09:51:20;16.58;;;5.55;;
63567;SDS011;49715;42.386;20.434;2022-07-24T09:53:52;9.30;;;5.38;;
63567;SDS011;49715;42.386;20.434;2022-07-24T09:56:23;12.23;;;5.07;;
63567;SDS011;49715;42.386;20.434;2022-07-24T09:58:52;11.82;;;5.68;;
63567;SDS011;49715;42.386;20.434;2022-07-24T10:01:21;9.55;;;5.95;;
63567;SDS011;49715;42.386;20.434;2022-07-24T10:03:51;9.88;;;5.35;;
63567;SDS011;49715;42.386;20.434;2022-07-24T10:06:22;12.48;;;5.80;;
63567;SDS011;49715;42.386;20.434;2022-07-24T10:08:55;12.80;;;5.90;;
63567;SDS011;49715;42.386;20.434;2022-07-24T10:11:22;9.82;;;5.65;;
63567;SDS011;49715;42.386;20.434;2022-07-24T10:13:49;16.95;;;5.68;;
63567;SDS011;49715;42.386;20.434;2022-07-24T10:18:54;7.97;;;5.70;;
63567;SDS011;49715;42.386;20.434;2022-07-24T10:21:25;12.90;;;5.93;;
63567;SDS011;49715;42.386;20.434;2022-07-24T10:29:19;11.30;;;6.18;;
63567;SDS011;49715;42.386;20.434;2022-07-24T10:42:15;9.68;;;6.07;;
63567;SDS011;49715;42.386;20.434;2022-07-24T10:44:42;10.52;;;5.80;;
63567;SDS011;49715;42.386;20.434;2022-07-24T10:47:11;8.70;;;6.13;;
63567;SDS011;49715;42.386;20.434;2022-07-24T11:00:21;8.57;;;5.90;;
63567;SDS011;49715;42.386;20.434;2022-07-24T11:02:57;11.13;;;6.70;;
63567;SDS011;49715;42.386;20.434;2022-07-24T11:05:29;9.93;;;6.78;;
63567;SDS011;49715;42.386;20.434;2022-07-24T11:10:52;10.50;;;7.13;;
63567;SDS011;49715;42.386;20.434;2022-07-24T11:21:31;11.05;;;6.70;;
63567;SDS011;49715;42.386;20.434;2022-07-24T11:26:50;12.88;;;6.88;;
63567;SDS011;49715;42.386;20.434;2022-07-24T11:31:52;8.57;;;6.60;;
63567;SDS011;49715;42.386;20.434;2022-07-24T11:34:20;13.13;;;7.20;;
63567;SDS011;49715;42.386;20.434;2022-07-24T11:36:48;11.52;;;6.82;;
63567;SDS011;49715;42.386;20.434;2022-07-24T11:39:17;10.90;;;6.82;;
63567;SDS011;49715;42.386;20.434;2022-07-24T11:41:54;14.65;;;6.88;;
63567;SDS011;49715;42.386;20.434;2022-07-24T11:44:25;13.63;;;7.25;;
63567;SDS011;49715;42.386;20.434;2022-07-24T11:46:58;9.40;;;6.90;;
63567;SDS011;49715;42.386;20.434;2022-07-24T11:49:38;10.13;;;6.97;;
63567;SDS011;49715;42.386;20.434;2022-07-24T11:52:06;10.00;;;6.75;;
63567;SDS011;49715;42.386;20.434;2022-07-24T11:54:33;8.82;;;6.57;;
63567;SDS011;49715;42.386;20.434;2022-07-24T11:57:00;11.20;;;6.53;;
63567;SDS011;49715;42.386;20.434;2022-07-24T11:59:31;7.38;;;6.15;;
63567;SDS011;49715;42.386;20.434;2022-07-24T12:02:06;10.85;;;6.70;;
63567;SDS011;49715;42.386;20.434;2022-07-24T12:04:37;7.18;;;6.43;;
63567;SDS011;49715;42.386;20.434;2022-07-24T12:07:05;7.47;;;6.35;;
63567;SDS011;49715;42.386;20.434;2022-07-24T12:09:42;14.05;;;6.50;;
63567;SDS011;49715;42.386;20.434;2022-07-24T12:12:24;8.98;;;6.95;;
63567;SDS011;49715;42.386;20.434;2022-07-24T12:15:12;7.72;;;6.10;;
63567;SDS011;49715;42.386;20.434;2022-07-24T12:23:04;9.60;;;7.25;;
63567;SDS011;49715;42.386;20.434;2022-07-24T12:25:32;9.77;;;6.82;;
63567;SDS011;49715;42.386;20.434;2022-07-24T12:30:37;12.23;;;6.82;;
63567;SDS011;49715;42.386;20.434;2022-07-24T12:38:50;11.05;;;7.00;;
63567;SDS011;49715;42.386;20.434;2022-07-24T12:41:19;10.80;;;6.63;;
63567;SDS011;49715;42.386;20.434;2022-07-24T12:46:14;10.30;;;6.78;;
63567;SDS011;49715;42.386;20.434;2022-07-24T12:49:03;13.38;;;6.90;;
63567;SDS011;49715;42.386;20.434;2022-07-24T12:56:57;9.05;;;6.13;;
63567;SDS011;49715;42.386;20.434;2022-07-24T12:59:29;7.00;;;6.18;;
63567;SDS011;49715;42.386;20.434;2022-07-24T13:02:08;10.73;;;6.30;;
63567;SDS011;49715;42.386;20.434;2022-07-24T13:04:42;11.40;;;6.20;;
63567;SDS011;49715;42.386;20.434;2022-07-24T13:07:15;11.95;;;6.07;;
63567;SDS011;49715;42.386;20.434;2022-07-24T13:09:43;7.90;;;5.97;;
63567;SDS011;49715;42.386;20.434;2022-07-24T13:12:11;9.75;;;5.72;;
63567;SDS011;49715;42.386;20.434;2022-07-24T13:14:42;9.52;;;6.20;;
63567;SDS011;49715;42.386;20.434;2022-07-24T13:17:10;14.23;;;6.50;;
63567;SDS011;49715;42.386;20.434;2022-07-24T13:19:40;9.48;;;6.38;;
63567;SDS011;49715;42.386;20.434;2022-07-24T13:22:08;12.77;;;5.90;;
63567;SDS011;49715;42.386;20.434;2022-07-24T13:24:36;8.70;;;6.30;;
63567;SDS011;49715;42.386;20.434;2022-07-24T13:27:07;10.57;;;6.38;;
63567;SDS011;49715;42.386;20.434;2022-07-24T13:29:35;11.27;;;6.90;;
63567;SDS011;49715;42.386;20.434;2022-07-24T13:32:02;9.65;;;6.28;;
63567;SDS011;49715;42.386;20.434;2022-07-24T13:34:29;11.75;;;6.68;;
63567;SDS011;49715;42.386;20.434;2022-07-24T13:36:55;9.18;;;6.30;;
63567;SDS011;49715;42.386;20.434;2022-07-24T13:39:22;10.43;;;6.82;;
63567;SDS011;49715;42.386;20.434;2022-07-24T13:41:50;7.28;;;6.22;;
63567;SDS011;49715;42.386;20.434;2022-07-24T13:44:16;10.60;;;6.57;;
63567;SDS011;49715;42.386;20.434;2022-07-24T13:46:43;7.20;;;5.90;;
63567;SDS011;49715;42.386;20.434;2022-07-24T13:49:10;10.25;;;6.57;;
63567;SDS011;49715;42.386;20.434;2022-07-24T13:51:36;7.40;;;6.65;;
63567;SDS011;49715;42.386;20.434;2022-07-24T13:54:04;7.53;;;6.45;;
63567;SDS011;49715;42.386;20.434;2022-07-24T13:56:30;8.70;;;6.68;;
63567;SDS011;49715;42.386;20.434;2022-07-24T13:58:57;8.43;;;6.40;;
63567;SDS011;49715;42.386;20.434;2022-07-24T14:01:24;12.27;;;6.63;;
63567;SDS011;49715;42.386;20.434;2022-07-24T14:03:50;13.80;;;7.25;;
63567;SDS011;49715;42.386;20.434;2022-07-24T14:06:18;17.10;;;8.02;;
63567;SDS011;49715;42.386;20.434;2022-07-24T14:08:45;13.45;;;7.82;;
63567;SDS011;49715;42.386;20.434;2022-07-24T14:11:12;20.92;;;8.25;;
63567;SDS011;49715;42.386;20.434;2022-07-24T14:13:39;16.50;;;8.18;;
63567;SDS011;49715;42.386;20.434;2022-07-24T14:16:05;17.02;;;8.00;;
63567;SDS011;49715;42.386;20.434;2022-07-24T14:18:32;12.40;;;7.38;;
63567;SDS011;49715;42.386;20.434;2022-07-24T14:20:58;14.55;;;8.45;;
63567;SDS011;49715;42.386;20.434;2022-07-24T14:23:25;11.43;;;7.70;;
63567;SDS011;49715;42.386;20.434;2022-07-24T14:25:52;15.98;;;8.15;;
63567;SDS011;49715;42.386;20.434;2022-07-24T14:28:18;15.43;;;7.57;;
63567;SDS011;49715;42.386;20.434;2022-07-24T14:30:46;10.80;;;8.30;;
63567;SDS011;49715;42.386;20.434;2022-07-24T14:33:13;17.75;;;8.15;;
63567;SDS011;49715;42.386;20.434;2022-07-24T14:35:40;23.67;;;8.65;;
63567;SDS011;49715;42.386;20.434;2022-07-24T14:38:06;37.78;;;8.80;;
63567;SDS011;49715;42.386;20.434;2022-07-24T14:40:33;25.00;;;8.93;;
63567;SDS011;49715;42.386;20.434;2022-07-24T14:43:00;21.30;;;9.65;;
63567;SDS011;49715;42.386;20.434;2022-07-24T14:45:26;17.77;;;9.55;;
63567;SDS011;49715;42.386;20.434;2022-07-24T14:47:53;25.75;;;9.98;;
63567;SDS011;49715;42.386;20.434;2022-07-24T14:50:20;15.65;;;10.10;;
63567;SDS011;49715;42.386;20.434;2022-07-24T14:52:46;18.67;;;9.43;;
63567;SDS011;49715;42.386;20.434;2022-07-24T14:55:13;17.50;;;9.93;;
63567;SDS011;49715;42.386;20.434;2022-07-24T14:57:39;15.68;;;9.85;;
63567;SDS011;49715;42.386;20.434;2022-07-24T15:00:06;17.92;;;10.00;;
63567;SDS011;49715;42.386;20.434;2022-07-24T15:02:33;21.33;;;10.38;;
63567;SDS011;49715;42.386;20.434;2022-07-24T15:05:00;15.50;;;10.00;;
63567;SDS011;49715;42.386;20.434;2022-07-24T15:07:27;18.00;;;10.15;;
63567;SDS011;49715;42.386;20.434;2022-07-24T15:09:54;18.60;;;10.40;;
63567;SDS011;49715;42.386;20.434;2022-07-24T15:12:20;21.10;;;10.77;;
63567;SDS011;49715;42.386;20.434;2022-07-24T15:14:47;24.98;;;10.90;;
63567;SDS011;49715;42.386;20.434;2022-07-24T15:17:13;17.33;;;11.80;;
63567;SDS011;49715;42.386;20.434;2022-07-24T15:19:40;15.02;;;11.88;;
63567;SDS011;49715;42.386;20.434;2022-07-24T15:22:07;17.85;;;11.63;;
63567;SDS011;49715;42.386;20.434;2022-07-24T15:24:34;25.60;;;12.65;;
63567;SDS011;49715;42.386;20.434;2022-07-24T15:27:01;19.13;;;12.85;;
63567;SDS011;49715;42.386;20.434;2022-07-24T15:29:28;19.58;;;12.80;;
63567;SDS011;49715;42.386;20.434;2022-07-24T15:32:05;18.80;;;12.52;;
63567;SDS011;49715;42.386;20.434;2022-07-24T15:34:31;16.98;;;12.73;;
63567;SDS011;49715;42.386;20.434;2022-07-24T15:36:58;15.23;;;13.20;;
63567;SDS011;49715;42.386;20.434;2022-07-24T15:39:24;18.85;;;12.88;;
63567;SDS011;49715;42.386;20.434;2022-07-24T15:41:51;15.95;;;13.05;;
63567;SDS011;49715;42.386;20.434;2022-07-24T15:44:19;15.60;;;13.57;;
63567;SDS011;49715;42.386;20.434;2022-07-24T15:46:46;20.52;;;13.70;;
63567;SDS011;49715;42.386;20.434;2022-07-24T15:49:13;23.83;;;13.70;;
63567;SDS011;49715;42.386;20.434;2022-07-24T15:51:40;17.17;;;13.02;;
63567;SDS011;49715;42.386;20.434;2022-07-24T15:56:32;20.95;;;13.98;;
63567;SDS011;49715;42.386;20.434;2022-07-24T15:58:59;16.88;;;13.38;;
63567;SDS011;49715;42.386;20.434;2022-07-24T16:03:52;17.63;;;13.43;;
63567;SDS011;49715;42.386;20.434;2022-07-24T16:06:19;15.32;;;13.63;;
63567;SDS011;49715;42.386;20.434;2022-07-24T16:08:46;19.48;;;13.60;;
63567;SDS011;49715;42.386;20.434;2022-07-24T16:11:13;14.88;;;13.38;;
63567;SDS011;49715;42.386;20.434;2022-07-24T16:16:06;15.00;;;13.50;;
63567;SDS011;49715;42.386;20.434;2022-07-24T16:18:34;14.60;;;12.50;;